createdAt,value
2023-06-22T00:00:28.455Z,101770.44
2023-06-22T00:02:56.600Z,101771.81
2023-06-22T00:05:24.408Z,101761.75
2023-06-22T00:07:52.091Z,101762.22
2023-06-22T00:10:19.846Z,101750.81
2023-06-22T00:12:47.529Z,101756.38
2023-06-22T00:15:16.858Z,101752.34
2023-06-22T00:17:44.597Z,101755.03
2023-06-22T00:20:13.342Z,101748.34
2023-06-22T00:22:41.211Z,101752.88
2023-06-22T00:25:09.942Z,101754.06
2023-06-22T00:27:38.136Z,101749.03
2023-06-22T00:30:06.770Z,101745.69
2023-06-22T00:32:35.850Z,101738.97
2023-06-22T00:35:03.626Z,101741.00
2023-06-22T00:37:31.339Z,101738.00
2023-06-22T00:39:59.079Z,101733.63
2023-06-22T00:42:27.269Z,101731.78
2023-06-22T00:44:55.236Z,101731.78
2023-06-22T00:47:23.771Z,101739.00
2023-06-22T00:49:53.289Z,101725.38
2023-06-22T00:52:22.845Z,101719.50
2023-06-22T00:54:51.440Z,101710.09
2023-06-22T00:59:47.151Z,101721.88
2023-06-22T01:02:14.990Z,101718.34
2023-06-22T01:04:42.897Z,101716.69
2023-06-22T01:07:19.045Z,101718.00
2023-06-22T01:09:51.800Z,101717.88
2023-06-22T01:12:20.777Z,101712.81
2023-06-22T01:14:53.280Z,101727.25
2023-06-22T01:17:22.321Z,101721.22
2023-06-22T01:19:53.746Z,101727.13
2023-06-22T01:22:24.714Z,101729.34
2023-06-22T01:24:59.732Z,101732.03
2023-06-22T01:27:35.827Z,101729.84
2023-06-22T01:30:06.535Z,101727.69
2023-06-22T01:32:37.017Z,101724.31
2023-06-22T01:35:06.974Z,101723.00
2023-06-22T01:37:36.461Z,101723.00
2023-06-22T01:40:06.256Z,101722.16
2023-06-22T01:42:34.435Z,101726.69
2023-06-22T01:45:02.460Z,101717.94
2023-06-22T01:47:32.102Z,101717.94
2023-06-22T01:50:00.302Z,101713.59
2023-06-22T01:52:28.649Z,101713.75
2023-06-22T01:54:58.846Z,101716.63
2023-06-22T01:57:26.757Z,101708.88
2023-06-22T02:00:00.075Z,101715.97
2023-06-22T02:02:32.887Z,101701.88
2023-06-22T02:05:03.455Z,101711.28
2023-06-22T02:07:35.297Z,101708.91
2023-06-22T02:10:04.978Z,101703.88
2023-06-22T02:12:33.681Z,101705.56
2023-06-22T02:15:02.607Z,101699.53
2023-06-22T02:17:34.615Z,101698.88
2023-06-22T02:20:09.583Z,101707.59
2023-06-22T02:22:37.402Z,101712.97
2023-06-22T02:25:05.791Z,101706.94
2023-06-22T02:27:33.622Z,101706.94
2023-06-22T02:30:01.545Z,101712.63
2023-06-22T02:32:29.448Z,101709.63
2023-06-22T02:34:58.736Z,101711.47
2023-06-22T02:37:30.602Z,101708.78
2023-06-22T02:39:58.534Z,101706.25
2023-06-22T02:42:26.236Z,101695.88
2023-06-22T02:44:54.045Z,101706.63
2023-06-22T02:47:21.794Z,101702.25
2023-06-22T02:49:49.594Z,101691.00
2023-06-22T02:52:18.925Z,101694.69
2023-06-22T02:54:47.208Z,101707.97
2023-06-22T02:57:15.594Z,101701.09
2023-06-22T02:59:43.900Z,101708.31
2023-06-22T03:02:12.376Z,101698.56
2023-06-22T03:04:40.224Z,101705.78
2023-06-22T03:07:08.104Z,101699.88
2023-06-22T03:09:37.326Z,101698.84
2023-06-22T03:12:05.702Z,101705.25
2023-06-22T03:14:33.518Z,101702.75
2023-06-22T03:17:04.498Z,101700.22
2023-06-22T03:19:32.576Z,101702.25
2023-06-22T03:22:01.942Z,101707.94
2023-06-22T03:24:30.750Z,101698.22
2023-06-22T03:26:59.980Z,101694.88
2023-06-22T03:29:31.197Z,101701.06
2023-06-22T03:31:59.406Z,101697.88
2023-06-22T03:34:27.268Z,101681.94
2023-06-22T03:36:55.259Z,101683.13
2023-06-22T03:39:23.092Z,101701.09
2023-06-22T03:41:50.850Z,101696.53
2023-06-22T03:44:20.068Z,101698.22
2023-06-22T03:46:47.933Z,101699.41
2023-06-22T03:49:15.774Z,101691.00
2023-06-22T03:51:43.623Z,101690.16
2023-06-22T03:54:11.496Z,101699.72
2023-06-22T03:56:39.559Z,101685.28
2023-06-22T03:59:07.326Z,101682.78
2023-06-22T04:01:37.750Z,101679.59
2023-06-22T04:04:06.040Z,101689.16
2023-06-22T04:06:34.969Z,101682.59
2023-06-22T04:09:02.779Z,101671.03
2023-06-22T04:11:30.511Z,101671.03
2023-06-22T04:13:58.299Z,101673.88
2023-06-22T04:16:26.063Z,101688.81
2023-06-22T04:18:55.307Z,101684.28
2023-06-22T04:21:23.096Z,101694.19
2023-06-22T04:23:50.853Z,101691.66
2023-06-22T04:26:21.966Z,101678.75
2023-06-22T04:28:52.604Z,101683.78
2023-06-22T04:31:20.793Z,101685.47
2023-06-22T04:33:48.663Z,101673.41
2023-06-22T04:36:17.957Z,101679.25
2023-06-22T04:38:45.902Z,101673.88
2023-06-22T04:41:15.371Z,101673.41
2023-06-22T04:43:43.201Z,101662.31
2023-06-22T04:46:10.996Z,101671.03
2023-06-22T04:48:38.673Z,101673.72
2023-06-22T04:51:06.465Z,101667.31
2023-06-22T04:53:35.706Z,101667.31
2023-06-22T04:56:05.406Z,101675.25
2023-06-22T04:58:33.636Z,101672.38
2023-06-22T05:01:01.457Z,101664.16
2023-06-22T05:03:29.453Z,101665.66
2023-06-22T05:05:57.429Z,101663.97
2023-06-22T05:08:27.842Z,101661.94
2023-06-22T05:11:04.735Z,101666.16
2023-06-22T05:13:33.348Z,101662.97
2023-06-22T05:16:03.633Z,101663.47
2023-06-22T05:18:32.018Z,101673.88
2023-06-22T05:21:00.512Z,101670.03
2023-06-22T05:23:28.567Z,101668.66
2023-06-22T05:25:59.129Z,101670.50
2023-06-22T05:28:27.148Z,101665.47
2023-06-22T05:30:55.448Z,101665.28
2023-06-22T05:33:23.294Z,101664.94
2023-06-22T05:35:51.078Z,101664.28
2023-06-22T05:38:18.841Z,101656.03
2023-06-22T05:40:46.663Z,101655.03
2023-06-22T05:43:15.941Z,101663.28
2023-06-22T05:45:43.897Z,101666.63
2023-06-22T05:48:11.701Z,101657.59
2023-06-22T05:50:39.780Z,101659.75
2023-06-22T05:53:08.853Z,101666.47
2023-06-22T05:55:36.762Z,101667.63
2023-06-22T05:58:05.563Z,101670.66
2023-06-22T06:00:34.971Z,101663.59
2023-06-22T06:03:04.540Z,101663.25
2023-06-22T06:05:32.585Z,101678.03
2023-06-22T06:08:01.034Z,101686.94
2023-06-22T06:10:31.048Z,101691.09
2023-06-22T06:12:59.083Z,101684.72
2023-06-22T06:15:27.034Z,101684.38
2023-06-22T06:17:56.544Z,101676.97
2023-06-22T06:20:25.657Z,101675.63
2023-06-22T06:22:53.422Z,101680.50
2023-06-22T06:25:22.928Z,101684.69
2023-06-22T06:27:52.351Z,101667.91
2023-06-22T06:30:21.067Z,101675.28
2023-06-22T06:32:49.277Z,101675.75
2023-06-22T06:35:18.579Z,101667.88
2023-06-22T06:37:49.689Z,101664.13
2023-06-22T06:40:18.448Z,101668.16
2023-06-22T06:42:47.304Z,101672.53
2023-06-22T06:45:17.760Z,101660.41
2023-06-22T06:47:45.752Z,101667.09
2023-06-22T06:50:14.251Z,101669.47
2023-06-22T06:52:43.608Z,101668.09
2023-06-22T06:55:13.310Z,101669.44
2023-06-22T06:57:41.660Z,101664.53
2023-06-22T07:00:13.320Z,101664.03
2023-06-22T07:02:42.334Z,101653.09
2023-06-22T07:05:10.679Z,101653.56
2023-06-22T07:07:38.943Z,101661.09
2023-06-22T07:10:09.165Z,101660.75
2023-06-22T07:12:37.209Z,101656.50
2023-06-22T07:15:06.264Z,101662.19
2023-06-22T07:17:34.309Z,101657.47
2023-06-22T07:20:02.420Z,101656.75
2023-06-22T07:22:30.448Z,101644.59
2023-06-22T07:24:58.220Z,101647.22
2023-06-22T07:27:28.130Z,101634.44
2023-06-22T07:29:56.442Z,101630.09
2023-06-22T07:32:24.223Z,101623.84
2023-06-22T07:34:52.259Z,101613.25
2023-06-22T07:37:20.033Z,101632.03
2023-06-22T07:39:47.897Z,101630.84
2023-06-22T07:42:19.764Z,101625.94
2023-06-22T07:44:49.010Z,101627.59
2023-06-22T07:47:18.985Z,101626.22
2023-06-22T07:49:46.831Z,101626.69
2023-06-22T07:52:14.792Z,101623.53
2023-06-22T07:54:42.557Z,101618.69
2023-06-22T07:57:10.365Z,101623.72
2023-06-22T07:59:39.345Z,101616.81
2023-06-22T08:02:09.873Z,101618.16
2023-06-22T08:07:01.443Z,101612.72
2023-06-22T08:09:30.300Z,101610.78
2023-06-22T08:11:58.035Z,101607.34
2023-06-22T08:14:25.889Z,101603.94
2023-06-22T08:16:53.642Z,101610.91
2023-06-22T08:19:21.353Z,101611.00
2023-06-22T08:21:49.261Z,101608.94
2023-06-22T08:24:18.469Z,101600.69
2023-06-22T08:26:46.193Z,101590.38
2023-06-22T08:29:13.966Z,101600.38
2023-06-22T08:31:41.750Z,101605.88
2023-06-22T08:34:09.517Z,101601.59
2023-06-22T08:36:42.428Z,101604.75
2023-06-22T08:39:10.333Z,101593.81
2023-06-22T11:17:32.651Z,101490.50
2023-06-22T11:20:01.350Z,101487.84
2023-06-22T11:22:29.368Z,101488.91
2023-06-22T11:25:57.814Z,101481.28
2023-06-22T11:28:25.704Z,101479.66
2023-06-22T11:30:54.329Z,101463.03
2023-06-22T11:33:22.127Z,101464.34
2023-06-22T11:35:49.953Z,101458.53
2023-06-22T11:38:49.914Z,101457.06
2023-06-22T11:41:17.749Z,101462.94
2023-06-22T11:43:46.659Z,101459.78
2023-06-22T11:46:14.517Z,101454.38
2023-06-22T11:49:19.919Z,101447.97
2023-06-22T11:51:47.690Z,101447.31
2023-06-22T11:54:15.609Z,101437.53
2023-06-22T11:56:43.407Z,101437.75
2023-06-22T11:59:11.141Z,101431.50
2023-06-22T12:01:38.994Z,101435.25
2023-06-22T12:04:07.033Z,101440.84
2023-06-22T12:06:39.299Z,101434.38
2023-06-22T12:09:07.099Z,101432.72
2023-06-22T12:11:34.949Z,101434.75
2023-06-22T12:14:03.579Z,101432.72
2023-06-22T12:16:31.458Z,101428.34
2023-06-22T12:18:59.267Z,101427.50
2023-06-22T12:21:27.284Z,101435.78
2023-06-22T12:23:56.473Z,101436.44
2023-06-22T12:26:24.276Z,101447.25
2023-06-22T12:28:51.993Z,101436.44
2023-06-22T12:31:19.798Z,101441.84
2023-06-22T12:34:31.017Z,101441.00
2023-06-22T12:36:58.859Z,101441.81
2023-06-22T12:39:26.775Z,101456.34
2023-06-22T12:41:54.605Z,101460.94
2023-06-22T12:44:22.380Z,101462.41
2023-06-22T12:46:50.157Z,101461.34
2023-06-22T12:49:18.158Z,101465.13
2023-06-22T12:51:47.491Z,101464.47
2023-06-22T12:54:15.218Z,101458.88
2023-06-22T12:56:44.898Z,101470.53
2023-06-22T12:59:12.727Z,101465.31
2023-06-22T13:02:25.326Z,101460.09
2023-06-22T13:04:53.201Z,101465.50
2023-06-22T13:07:23.841Z,101463.81
2023-06-22T13:09:53.519Z,101471.72
2023-06-22T13:13:17.724Z,101459.41
2023-06-22T13:15:45.615Z,101447.34
2023-06-22T13:18:13.353Z,101438.28
2023-06-22T13:20:41.089Z,101432.88
2023-06-22T13:23:09.399Z,101424.09
2023-06-22T13:25:37.408Z,101413.88
2023-06-22T13:28:07.660Z,101411.31
2023-06-22T13:30:37.212Z,101410.44
2023-06-22T13:33:05.253Z,101411.03
2023-06-22T13:35:33.502Z,101414.75
2023-06-22T13:38:01.354Z,101403.72
2023-06-22T13:40:29.133Z,101406.78
2023-06-22T13:42:57.361Z,101406.34
2023-06-22T13:45:25.323Z,101397.63
2023-06-22T13:47:54.613Z,101378.47
2023-06-22T13:50:22.528Z,101370.28
2023-06-22T13:52:50.411Z,101373.78
2023-06-22T13:55:18.301Z,101379.38
2023-06-22T13:57:46.113Z,101369.34
2023-06-22T14:00:15.056Z,101361.66
2023-06-22T14:02:42.974Z,101360.34
2023-06-22T14:05:13.093Z,101355.91
2023-06-22T14:07:41.089Z,101366.34
2023-06-22T14:10:09.602Z,101356.59
2023-06-22T14:12:37.495Z,101351.34
2023-06-22T14:15:06.103Z,101351.56
2023-06-22T14:17:33.974Z,101343.03
2023-06-22T14:20:01.691Z,101338.28
2023-06-22T14:22:31.278Z,101330.19
2023-06-22T14:24:59.841Z,101318.16
2023-06-22T14:27:53.291Z,101304.84
2023-06-22T14:30:21.032Z,101299.22
2023-06-22T14:32:49.060Z,101298.50
2023-06-22T14:35:17.053Z,101289.53
2023-06-22T14:37:44.910Z,101293.22
2023-06-22T14:40:16.486Z,101291.56
2023-06-22T14:42:44.531Z,101286.00
2023-06-22T14:45:15.153Z,101279.38
2023-06-22T14:47:43.138Z,101276.22
2023-06-22T14:50:11.378Z,101275.78
2023-06-22T14:52:39.226Z,101279.50
2023-06-22T14:55:08.153Z,101287.38
2023-06-22T14:57:36.033Z,101277.63
2023-06-22T15:00:04.071Z,101275.97
2023-06-22T15:02:33.470Z,101275.78
2023-06-22T15:05:01.337Z,101269.56
2023-06-22T15:07:29.153Z,101268.09
2023-06-22T15:09:56.976Z,101262.31
2023-06-22T15:12:24.725Z,101255.25
2023-06-22T15:14:52.528Z,101238.06
2023-06-22T15:17:20.359Z,101225.44
2023-06-22T15:19:49.567Z,101225.22
2023-06-22T15:22:19.210Z,101222.72
2023-06-22T15:24:48.844Z,101222.16
2023-06-22T15:27:16.895Z,101204.13
2023-06-22T15:29:44.731Z,101208.84
2023-06-22T15:32:12.456Z,101209.88
2023-06-22T15:34:40.434Z,101221.50
2023-06-22T15:37:09.774Z,101206.56
2023-06-22T15:39:37.536Z,101205.34
2023-06-22T15:42:05.464Z,101209.06
2023-06-22T15:44:33.246Z,101221.50
2023-06-22T15:47:01.009Z,101210.72
2023-06-22T15:49:29.099Z,101210.72
2023-06-22T15:51:56.795Z,101208.63
2023-06-22T15:54:26.104Z,101191.81
2023-06-22T15:56:53.842Z,101174.19
2023-06-22T15:59:21.734Z,101172.50
2023-06-22T16:01:49.637Z,101166.69
2023-06-22T16:04:17.427Z,101165.47
2023-06-22T16:06:45.229Z,101161.47
2023-06-22T16:09:15.114Z,101160.84
2023-06-22T16:11:46.044Z,101163.53
2023-06-22T16:14:38.754Z,101161.03
2023-06-22T16:17:06.912Z,101178.66
2023-06-22T16:19:34.793Z,101184.44
2023-06-22T16:22:02.596Z,101186.31
2023-06-22T16:24:30.436Z,101181.75
2023-06-22T16:28:45.800Z,101171.53
2023-06-22T16:31:13.622Z,101166.06
2023-06-22T16:33:47.746Z,101162.75
2023-06-22T16:36:15.859Z,101156.94
2023-06-22T16:38:44.243Z,101144.03
2023-06-22T16:41:12.604Z,101139.22
2023-06-22T16:43:40.597Z,101149.94
2023-06-22T16:46:10.291Z,101160.44
2023-06-22T16:48:38.450Z,101159.13
2023-06-22T16:51:06.477Z,101164.28
2023-06-22T16:56:31.456Z,101195.66
2023-06-22T16:59:06.943Z,101214.50
2023-06-22T17:01:38.061Z,101223.59
2023-06-22T17:04:09.854Z,101227.31
2023-06-22T17:06:38.127Z,101241.13
2023-06-22T17:09:05.986Z,101251.59
2023-06-22T17:11:35.130Z,101265.25
2023-06-22T17:14:03.069Z,101266.84
2023-06-22T17:16:33.295Z,101261.47
2023-06-22T17:19:04.867Z,101262.31
2023-06-22T17:21:34.060Z,101253.94
2023-06-22T17:24:02.903Z,101256.31
2023-06-22T17:26:32.523Z,101264.84
2023-06-22T17:29:03.996Z,101257.22
2023-06-22T17:31:39.208Z,101257.13
2023-06-22T17:34:10.858Z,101252.13
2023-06-22T17:36:45.675Z,101250.84
2023-06-22T17:39:14.860Z,101239.16
2023-06-22T17:41:44.965Z,101243.28
2023-06-22T17:44:15.634Z,101224.03
2023-06-22T17:46:44.146Z,101202.75
2023-06-22T17:49:12.709Z,101200.50
2023-06-22T17:51:41.688Z,101196.56
2023-06-22T17:54:09.542Z,101197.28
2023-06-22T17:56:37.596Z,101197.84
2023-06-22T17:59:05.728Z,101199.19
2023-06-22T18:01:36.515Z,101202.06
2023-06-22T18:04:08.412Z,101201.44
2023-06-22T18:06:39.131Z,101199.28
2023-06-22T18:09:09.060Z,101194.91
2023-06-22T18:11:39.469Z,101191.28
2023-06-22T18:14:07.470Z,101191.00
2023-06-22T18:16:37.357Z,101183.09
2023-06-22T18:19:05.364Z,101194.22
2023-06-22T18:21:33.268Z,101196.94
2023-06-22T18:24:01.857Z,101196.44
2023-06-22T18:26:29.798Z,101216.63
2023-06-22T18:28:58.641Z,101211.44
2023-06-22T18:31:27.437Z,101229.56
2023-06-22T18:33:58.667Z,101221.22
2023-06-22T18:36:28.570Z,101229.25
2023-06-22T18:38:59.718Z,101217.38
2023-06-22T18:41:36.110Z,101230.13
2023-06-22T18:44:04.921Z,101231.31
2023-06-22T18:46:36.949Z,101233.66
2023-06-22T18:49:13.243Z,101228.81
2023-06-22T18:51:55.019Z,101242.75
2023-06-22T18:54:24.842Z,101241.06
2023-06-22T18:56:57.055Z,101238.56
2023-06-22T18:59:44.186Z,101248.13
2023-06-22T19:02:12.828Z,101259.75
2023-06-22T19:04:42.884Z,101241.84
2023-06-22T19:07:13.089Z,101265.97
2023-06-22T19:09:41.201Z,101265.47
2023-06-22T19:12:19.759Z,101265.00
2023-06-22T19:15:13.186Z,101268.19
2023-06-22T19:17:43.921Z,101257.81
2023-06-22T19:20:14.442Z,101260.81
2023-06-22T19:22:49.837Z,101261.47
2023-06-22T19:25:21.919Z,101272.53
2023-06-22T19:27:52.055Z,101266.00
2023-06-22T19:30:20.094Z,101280.56
2023-06-22T19:32:48.713Z,101269.34
2023-06-22T19:35:18.627Z,101277.06
2023-06-22T19:37:47.534Z,101282.72
2023-06-22T19:40:22.088Z,101268.00
2023-06-22T19:42:55.342Z,101277.06
2023-06-22T19:45:23.239Z,101286.59
2023-06-22T19:47:52.379Z,101302.66
2023-06-22T19:50:25.907Z,101278.41
2023-06-22T19:52:56.784Z,101302.50
2023-06-22T19:55:24.657Z,101305.19
2023-06-22T19:57:52.517Z,101296.50
2023-06-22T20:00:23.552Z,101289.94
2023-06-22T20:02:52.735Z,101292.44
2023-06-22T20:05:22.991Z,101271.72
2023-06-22T20:07:50.896Z,101277.56
2023-06-22T20:10:20.771Z,101286.25
2023-06-22T20:12:50.950Z,101265.66
2023-06-22T20:15:26.852Z,101249.09
2023-06-22T20:17:55.983Z,101263.34
2023-06-22T20:20:26.690Z,101261.97
2023-06-22T20:22:57.161Z,101267.66
2023-06-22T20:25:26.142Z,101278.38
2023-06-22T20:27:54.043Z,101274.88
2023-06-22T20:30:23.283Z,101269.00
2023-06-22T20:32:52.035Z,101270.66
2023-06-22T20:35:21.391Z,101266.31
2023-06-22T20:37:54.615Z,101267.31
2023-06-22T20:40:27.525Z,101270.66
2023-06-22T20:42:58.425Z,101275.69
2023-06-22T20:45:26.622Z,101277.03
2023-06-22T20:47:56.998Z,101287.91
2023-06-22T20:50:29.156Z,101291.44
2023-06-22T20:52:58.915Z,101300.81
2023-06-22T20:55:26.903Z,101312.00
2023-06-22T20:57:55.885Z,101330.56
2023-06-22T21:00:24.081Z,101334.75
2023-06-22T21:02:53.637Z,101342.25
2023-06-22T21:05:21.757Z,101335.03
2023-06-22T21:07:50.092Z,101346.06
2023-06-22T21:10:19.383Z,101338.19
2023-06-22T21:12:47.155Z,101343.22
2023-06-22T21:15:14.955Z,101351.88
2023-06-22T21:17:42.826Z,101362.06
2023-06-22T21:20:11.394Z,101356.53
2023-06-22T21:22:39.650Z,101357.16
2023-06-22T21:25:09.084Z,101365.66
2023-06-22T21:27:38.528Z,101357.16
2023-06-22T21:30:08.191Z,101356.81
2023-06-22T21:32:36.234Z,101350.81
2023-06-22T21:35:04.089Z,101360.50
2023-06-22T21:37:32.091Z,101354.66
2023-06-22T21:39:59.879Z,101355.47
2023-06-22T21:42:28.426Z,101356.50
2023-06-22T21:44:58.092Z,101355.16
2023-06-22T21:47:26.956Z,101361.66
2023-06-22T21:49:54.774Z,101373.22
2023-06-22T21:52:22.831Z,101368.31
2023-06-22T21:54:50.620Z,101376.72
2023-06-22T21:57:18.318Z,101375.06
2023-06-22T21:59:46.182Z,101371.16
2023-06-22T22:02:15.474Z,101375.34
2023-06-22T22:04:43.251Z,101366.28
2023-06-22T22:07:11.068Z,101373.47
2023-06-22T22:09:38.920Z,101370.47
2023-06-22T22:12:07.670Z,101381.81
2023-06-22T22:14:36.069Z,101368.16
2023-06-22T22:17:03.933Z,101372.16
2023-06-22T22:19:33.234Z,101367.16
2023-06-22T22:22:01.042Z,101365.31
2023-06-22T22:24:28.844Z,101375.47
2023-06-22T22:26:56.620Z,101367.16
2023-06-22T22:29:24.312Z,101367.44
2023-06-22T22:31:52.080Z,101369.13
2023-06-22T22:34:19.979Z,101370.81
2023-06-22T22:36:49.175Z,101367.78
2023-06-22T22:39:31.673Z,101369.91
2023-06-22T22:42:00.541Z,101372.09
2023-06-22T22:44:28.467Z,101365.22
2023-06-22T22:46:56.652Z,101375.09
2023-06-22T22:49:24.774Z,101378.28
2023-06-22T22:51:54.412Z,101385.47
2023-06-22T22:54:22.296Z,101394.94
2023-06-22T22:56:50.463Z,101394.66
2023-06-22T22:59:18.331Z,101408.16
2023-06-22T23:01:46.260Z,101414.88
2023-06-22T23:04:19.112Z,101426.25
2023-06-22T23:06:46.881Z,101424.41
2023-06-22T23:09:16.058Z,101434.28
2023-06-22T23:11:43.875Z,101440.31
2023-06-22T23:14:11.850Z,101433.28
2023-06-22T23:16:40.130Z,101445.13
2023-06-22T23:19:08.133Z,101452.66
2023-06-22T23:21:35.948Z,101451.25
2023-06-22T23:24:05.499Z,101458.00
2023-06-22T23:26:34.776Z,101443.91
2023-06-22T23:29:02.804Z,101427.97
2023-06-22T23:31:34.302Z,101447.13
2023-06-22T23:34:04.505Z,101447.13
2023-06-22T23:36:32.319Z,101444.06
2023-06-22T23:39:00.199Z,101445.59
2023-06-22T23:41:28.761Z,101456.00
2023-06-22T23:43:57.988Z,101454.00
2023-06-22T23:46:25.936Z,101461.63
2023-06-22T23:48:53.813Z,101457.66
2023-06-22T23:51:21.619Z,101458.66
2023-06-22T23:53:49.658Z,101449.66
2023-06-22T23:56:17.518Z,101444.91
2023-06-22T23:58:45.386Z,101458.28
